sensor_id;sensor_type;location;lat;lon;timestamp;P1;durP1;ratioP1;P2;durP2;ratioP2
30948;SDS011;17637;51.984;21.208;2023-07-24T00:01:03;7.43;;;4.43;;
30948;SDS011;17637;51.984;21.208;2023-07-24T00:03:35;7.32;;;4.70;;
30948;SDS011;17637;51.984;21.208;2023-07-24T00:06:07;7.57;;;5.00;;
30948;SDS011;17637;51.984;21.208;2023-07-24T00:08:39;8.30;;;4.65;;
30948;SDS011;17637;51.984;21.208;2023-07-24T00:11:11;7.65;;;4.20;;
30948;SDS011;17637;51.984;21.208;2023-07-24T00:13:42;6.80;;;4.70;;
30948;SDS011;17637;51.984;21.208;2023-07-24T00:16:14;6.32;;;4.18;;
30948;SDS011;17637;51.984;21.208;2023-07-24T00:18:46;6.45;;;4.47;;
30948;SDS011;17637;51.984;21.208;2023-07-24T00:21:18;6.45;;;5.05;;
30948;SDS011;17637;51.984;21.208;2023-07-24T00:23:49;5.75;;;4.38;;
30948;SDS011;17637;51.984;21.208;2023-07-24T00:26:21;8.45;;;5.00;;
30948;SDS011;17637;51.984;21.208;2023-07-24T00:28:53;8.02;;;4.45;;
30948;SDS011;17637;51.984;21.208;2023-07-24T00:31:25;6.50;;;5.15;;
30948;SDS011;17637;51.984;21.208;2023-07-24T00:33:57;7.20;;;5.03;;
30948;SDS011;17637;51.984;21.208;2023-07-24T00:36:31;7.18;;;5.15;;
30948;SDS011;17637;51.984;21.208;2023-07-24T00:42:11;8.18;;;4.53;;
30948;SDS011;17637;51.984;21.208;2023-07-24T00:44:43;5.97;;;4.68;;
30948;SDS011;17637;51.984;21.208;2023-07-24T00:47:15;7.97;;;4.95;;
30948;SDS011;17637;51.984;21.208;2023-07-24T00:49:47;6.13;;;4.93;;
30948;SDS011;17637;51.984;21.208;2023-07-24T00:52:19;7.38;;;5.50;;
30948;SDS011;17637;51.984;21.208;2023-07-24T00:54:52;9.93;;;5.35;;
30948;SDS011;17637;51.984;21.208;2023-07-24T00:57:25;10.15;;;5.45;;
30948;SDS011;17637;51.984;21.208;2023-07-24T00:59:57;5.75;;;4.72;;
30948;SDS011;17637;51.984;21.208;2023-07-24T01:02:28;9.98;;;5.50;;
30948;SDS011;17637;51.984;21.208;2023-07-24T01:05:01;6.20;;;4.40;;
30948;SDS011;17637;51.984;21.208;2023-07-24T01:07:33;6.22;;;4.82;;
30948;SDS011;17637;51.984;21.208;2023-07-24T01:10:05;8.15;;;5.57;;
30948;SDS011;17637;51.984;21.208;2023-07-24T01:12:51;7.07;;;5.03;;
30948;SDS011;17637;51.984;21.208;2023-07-24T01:15:38;9.45;;;4.93;;
30948;SDS011;17637;51.984;21.208;2023-07-24T01:18:16;6.97;;;4.70;;
30948;SDS011;17637;51.984;21.208;2023-07-24T01:20:53;8.38;;;5.30;;
30948;SDS011;17637;51.984;21.208;2023-07-24T01:26:22;5.30;;;4.00;;
30948;SDS011;17637;51.984;21.208;2023-07-24T01:28:57;7.97;;;4.97;;
30948;SDS011;17637;51.984;21.208;2023-07-24T01:31:29;14.50;;;5.97;;
30948;SDS011;17637;51.984;21.208;2023-07-24T01:34:01;11.02;;;5.70;;
30948;SDS011;17637;51.984;21.208;2023-07-24T01:36:33;8.85;;;4.72;;
30948;SDS011;17637;51.984;21.208;2023-07-24T01:39:05;8.57;;;5.20;;
30948;SDS011;17637;51.984;21.208;2023-07-24T01:41:37;8.38;;;5.20;;
30948;SDS011;17637;51.984;21.208;2023-07-24T01:44:09;5.82;;;4.82;;
30948;SDS011;17637;51.984;21.208;2023-07-24T01:46:41;6.15;;;4.68;;
30948;SDS011;17637;51.984;21.208;2023-07-24T01:49:13;7.55;;;5.45;;
30948;SDS011;17637;51.984;21.208;2023-07-24T01:51:45;7.85;;;5.25;;
30948;SDS011;17637;51.984;21.208;2023-07-24T01:54:16;7.57;;;4.95;;
30948;SDS011;17637;51.984;21.208;2023-07-24T01:56:48;8.30;;;5.28;;
30948;SDS011;17637;51.984;21.208;2023-07-24T01:59:20;6.65;;;4.65;;
30948;SDS011;17637;51.984;21.208;2023-07-24T02:01:52;5.88;;;4.63;;
30948;SDS011;17637;51.984;21.208;2023-07-24T02:04:24;6.18;;;4.63;;
30948;SDS011;17637;51.984;21.208;2023-07-24T02:06:55;7.03;;;4.97;;
30948;SDS011;17637;51.984;21.208;2023-07-24T02:09:27;6.47;;;4.18;;
30948;SDS011;17637;51.984;21.208;2023-07-24T02:11:59;7.65;;;4.93;;
30948;SDS011;17637;51.984;21.208;2023-07-24T02:14:31;9.20;;;4.93;;
30948;SDS011;17637;51.984;21.208;2023-07-24T02:17:03;7.15;;;4.68;;
30948;SDS011;17637;51.984;21.208;2023-07-24T02:19:35;6.65;;;4.45;;
30948;SDS011;17637;51.984;21.208;2023-07-24T02:22:07;6.47;;;4.88;;
30948;SDS011;17637;51.984;21.208;2023-07-24T02:24:39;5.55;;;4.72;;
30948;SDS011;17637;51.984;21.208;2023-07-24T02:27:12;6.22;;;4.90;;
30948;SDS011;17637;51.984;21.208;2023-07-24T02:29:45;7.55;;;5.00;;
30948;SDS011;17637;51.984;21.208;2023-07-24T02:32:17;6.22;;;5.30;;
30948;SDS011;17637;51.984;21.208;2023-07-24T02:34:49;9.07;;;5.10;;
30948;SDS011;17637;51.984;21.208;2023-07-24T02:37:22;7.03;;;4.88;;
30948;SDS011;17637;51.984;21.208;2023-07-24T02:39:54;6.68;;;4.85;;
30948;SDS011;17637;51.984;21.208;2023-07-24T02:42:26;8.55;;;4.82;;
30948;SDS011;17637;51.984;21.208;2023-07-24T02:44:57;8.18;;;5.03;;
30948;SDS011;17637;51.984;21.208;2023-07-24T02:47:30;7.53;;;4.93;;
30948;SDS011;17637;51.984;21.208;2023-07-24T02:50:02;11.68;;;4.43;;
30948;SDS011;17637;51.984;21.208;2023-07-24T02:52:34;7.70;;;4.57;;
30948;SDS011;17637;51.984;21.208;2023-07-24T02:55:06;6.43;;;4.70;;
30948;SDS011;17637;51.984;21.208;2023-07-24T02:57:38;7.00;;;4.85;;
30948;SDS011;17637;51.984;21.208;2023-07-24T03:00:10;5.00;;;4.20;;
30948;SDS011;17637;51.984;21.208;2023-07-24T03:02:42;6.80;;;4.78;;
30948;SDS011;17637;51.984;21.208;2023-07-24T03:05:14;6.38;;;4.55;;
30948;SDS011;17637;51.984;21.208;2023-07-24T03:07:46;8.68;;;5.18;;
30948;SDS011;17637;51.984;21.208;2023-07-24T03:10:18;6.13;;;4.70;;
30948;SDS011;17637;51.984;21.208;2023-07-24T03:12:50;10.23;;;5.20;;
30948;SDS011;17637;51.984;21.208;2023-07-24T03:15:22;6.65;;;4.65;;
30948;SDS011;17637;51.984;21.208;2023-07-24T03:17:54;7.35;;;4.93;;
30948;SDS011;17637;51.984;21.208;2023-07-24T03:20:26;8.70;;;4.93;;
30948;SDS011;17637;51.984;21.208;2023-07-24T03:22:57;5.70;;;4.63;;
30948;SDS011;17637;51.984;21.208;2023-07-24T03:25:29;7.43;;;5.35;;
30948;SDS011;17637;51.984;21.208;2023-07-24T03:28:03;7.82;;;5.05;;
30948;SDS011;17637;51.984;21.208;2023-07-24T03:30:35;8.20;;;4.68;;
30948;SDS011;17637;51.984;21.208;2023-07-24T03:33:07;5.70;;;4.78;;
30948;SDS011;17637;51.984;21.208;2023-07-24T03:35:39;7.30;;;4.68;;
30948;SDS011;17637;51.984;21.208;2023-07-24T03:38:11;7.05;;;4.68;;
30948;SDS011;17637;51.984;21.208;2023-07-24T03:40:43;7.00;;;4.78;;
30948;SDS011;17637;51.984;21.208;2023-07-24T03:43:15;8.63;;;5.13;;
30948;SDS011;17637;51.984;21.208;2023-07-24T03:45:46;8.50;;;4.78;;
30948;SDS011;17637;51.984;21.208;2023-07-24T03:48:18;5.18;;;4.43;;
30948;SDS011;17637;51.984;21.208;2023-07-24T03:50:57;6.00;;;4.82;;
30948;SDS011;17637;51.984;21.208;2023-07-24T03:53:30;7.30;;;4.40;;
30948;SDS011;17637;51.984;21.208;2023-07-24T03:56:03;7.72;;;5.10;;
30948;SDS011;17637;51.984;21.208;2023-07-24T03:58:35;7.30;;;5.07;;
30948;SDS011;17637;51.984;21.208;2023-07-24T04:01:07;8.40;;;5.55;;
30948;SDS011;17637;51.984;21.208;2023-07-24T04:03:40;8.32;;;5.60;;
30948;SDS011;17637;51.984;21.208;2023-07-24T04:06:12;6.38;;;5.05;;
30948;SDS011;17637;51.984;21.208;2023-07-24T04:08:43;8.05;;;4.68;;
30948;SDS011;17637;51.984;21.208;2023-07-24T04:11:15;6.97;;;5.45;;
30948;SDS011;17637;51.984;21.208;2023-07-24T04:13:47;8.10;;;5.50;;
30948;SDS011;17637;51.984;21.208;2023-07-24T04:16:19;5.85;;;4.93;;
30948;SDS011;17637;51.984;21.208;2023-07-24T04:18:51;7.78;;;4.78;;
30948;SDS011;17637;51.984;21.208;2023-07-24T04:21:23;8.43;;;5.70;;
30948;SDS011;17637;51.984;21.208;2023-07-24T04:23:54;10.05;;;5.90;;
30948;SDS011;17637;51.984;21.208;2023-07-24T04:26:26;10.55;;;5.38;;
30948;SDS011;17637;51.984;21.208;2023-07-24T04:28:58;8.77;;;5.65;;
30948;SDS011;17637;51.984;21.208;2023-07-24T04:31:31;7.78;;;5.13;;
30948;SDS011;17637;51.984;21.208;2023-07-24T04:34:02;8.52;;;4.97;;
30948;SDS011;17637;51.984;21.208;2023-07-24T04:36:34;7.63;;;5.78;;
30948;SDS011;17637;51.984;21.208;2023-07-24T04:39:06;9.43;;;5.72;;
30948;SDS011;17637;51.984;21.208;2023-07-24T04:41:38;10.45;;;5.10;;
30948;SDS011;17637;51.984;21.208;2023-07-24T04:44:09;8.13;;;5.40;;
30948;SDS011;17637;51.984;21.208;2023-07-24T04:46:41;7.55;;;5.10;;
30948;SDS011;17637;51.984;21.208;2023-07-24T04:49:13;7.38;;;4.90;;
30948;SDS011;17637;51.984;21.208;2023-07-24T04:51:45;8.55;;;5.45;;
30948;SDS011;17637;51.984;21.208;2023-07-24T04:54:17;10.45;;;5.20;;
30948;SDS011;17637;51.984;21.208;2023-07-24T04:56:49;7.78;;;5.35;;
30948;SDS011;17637;51.984;21.208;2023-07-24T04:59:21;6.90;;;5.40;;
30948;SDS011;17637;51.984;21.208;2023-07-24T05:01:52;6.47;;;4.82;;
30948;SDS011;17637;51.984;21.208;2023-07-24T05:04:24;9.65;;;5.60;;
30948;SDS011;17637;51.984;21.208;2023-07-24T05:06:56;10.32;;;5.03;;
30948;SDS011;17637;51.984;21.208;2023-07-24T05:09:28;9.88;;;4.85;;
30948;SDS011;17637;51.984;21.208;2023-07-24T05:12:00;8.10;;;5.45;;
30948;SDS011;17637;51.984;21.208;2023-07-24T05:14:31;10.48;;;5.35;;
30948;SDS011;17637;51.984;21.208;2023-07-24T05:17:03;9.05;;;5.32;;
30948;SDS011;17637;51.984;21.208;2023-07-24T05:19:35;7.57;;;5.13;;
30948;SDS011;17637;51.984;21.208;2023-07-24T05:22:07;6.60;;;5.35;;
30948;SDS011;17637;51.984;21.208;2023-07-24T05:24:39;10.52;;;5.28;;
30948;SDS011;17637;51.984;21.208;2023-07-24T05:27:11;7.22;;;5.28;;
30948;SDS011;17637;51.984;21.208;2023-07-24T05:29:43;6.03;;;4.65;;
30948;SDS011;17637;51.984;21.208;2023-07-24T05:32:16;11.07;;;5.28;;
30948;SDS011;17637;51.984;21.208;2023-07-24T05:34:47;6.05;;;4.40;;
30948;SDS011;17637;51.984;21.208;2023-07-24T05:37:19;10.02;;;4.70;;
30948;SDS011;17637;51.984;21.208;2023-07-24T05:39:51;6.22;;;4.72;;
30948;SDS011;17637;51.984;21.208;2023-07-24T05:42:23;7.75;;;5.00;;
30948;SDS011;17637;51.984;21.208;2023-07-24T05:44:55;5.20;;;4.35;;
30948;SDS011;17637;51.984;21.208;2023-07-24T05:47:27;7.50;;;4.85;;
30948;SDS011;17637;51.984;21.208;2023-07-24T05:49:59;9.30;;;4.75;;
30948;SDS011;17637;51.984;21.208;2023-07-24T05:52:30;7.10;;;4.18;;
30948;SDS011;17637;51.984;21.208;2023-07-24T05:55:02;7.32;;;4.40;;
30948;SDS011;17637;51.984;21.208;2023-07-24T05:57:35;6.50;;;4.85;;
30948;SDS011;17637;51.984;21.208;2023-07-24T06:00:07;5.40;;;3.85;;
30948;SDS011;17637;51.984;21.208;2023-07-24T06:02:39;6.72;;;4.63;;
30948;SDS011;17637;51.984;21.208;2023-07-24T06:05:10;5.20;;;4.10;;
30948;SDS011;17637;51.984;21.208;2023-07-24T06:07:42;7.78;;;4.22;;
30948;SDS011;17637;51.984;21.208;2023-07-24T06:10:14;5.22;;;4.10;;
30948;SDS011;17637;51.984;21.208;2023-07-24T06:12:46;8.73;;;4.35;;
30948;SDS011;17637;51.984;21.208;2023-07-24T06:15:19;5.97;;;4.22;;
30948;SDS011;17637;51.984;21.208;2023-07-24T06:17:50;5.97;;;3.97;;
30948;SDS011;17637;51.984;21.208;2023-07-24T06:20:25;9.93;;;4.55;;
30948;SDS011;17637;51.984;21.208;2023-07-24T06:22:56;7.05;;;4.25;;
30948;SDS011;17637;51.984;21.208;2023-07-24T06:25:28;6.43;;;4.32;;
30948;SDS011;17637;51.984;21.208;2023-07-24T06:28:00;6.70;;;4.40;;
30948;SDS011;17637;51.984;21.208;2023-07-24T06:30:32;8.73;;;4.30;;
30948;SDS011;17637;51.984;21.208;2023-07-24T06:33:04;8.57;;;3.80;;
30948;SDS011;17637;51.984;21.208;2023-07-24T06:35:36;8.00;;;4.55;;
30948;SDS011;17637;51.984;21.208;2023-07-24T06:38:08;8.15;;;4.25;;
30948;SDS011;17637;51.984;21.208;2023-07-24T06:40:40;5.13;;;3.88;;
30948;SDS011;17637;51.984;21.208;2023-07-24T06:43:12;5.22;;;4.03;;
30948;SDS011;17637;51.984;21.208;2023-07-24T06:45:43;4.47;;;3.88;;
30948;SDS011;17637;51.984;21.208;2023-07-24T06:48:15;9.45;;;4.15;;
30948;SDS011;17637;51.984;21.208;2023-07-24T06:50:47;4.78;;;3.78;;
30948;SDS011;17637;51.984;21.208;2023-07-24T06:53:19;6.60;;;4.47;;
30948;SDS011;17637;51.984;21.208;2023-07-24T06:55:51;7.90;;;3.80;;
30948;SDS011;17637;51.984;21.208;2023-07-24T06:58:22;5.30;;;3.78;;
30948;SDS011;17637;51.984;21.208;2023-07-24T07:00:54;5.93;;;3.63;;
30948;SDS011;17637;51.984;21.208;2023-07-24T07:03:26;5.90;;;3.85;;
30948;SDS011;17637;51.984;21.208;2023-07-24T07:05:58;6.35;;;3.70;;
30948;SDS011;17637;51.984;21.208;2023-07-24T07:08:30;10.13;;;4.28;;
30948;SDS011;17637;51.984;21.208;2023-07-24T07:11:02;4.88;;;3.33;;
30948;SDS011;17637;51.984;21.208;2023-07-24T07:13:34;4.75;;;3.10;;
30948;SDS011;17637;51.984;21.208;2023-07-24T07:16:06;5.35;;;3.38;;
30948;SDS011;17637;51.984;21.208;2023-07-24T07:18:38;5.05;;;3.65;;
30948;SDS011;17637;51.984;21.208;2023-07-24T07:21:10;4.15;;;3.38;;
30948;SDS011;17637;51.984;21.208;2023-07-24T07:23:41;6.05;;;3.15;;
30948;SDS011;17637;51.984;21.208;2023-07-24T07:26:17;7.43;;;3.17;;
30948;SDS011;17637;51.984;21.208;2023-07-24T07:28:49;8.43;;;3.58;;
30948;SDS011;17637;51.984;21.208;2023-07-24T07:31:22;9.15;;;3.38;;
30948;SDS011;17637;51.984;21.208;2023-07-24T07:33:53;7.78;;;3.38;;
30948;SDS011;17637;51.984;21.208;2023-07-24T07:36:25;3.95;;;2.95;;
30948;SDS011;17637;51.984;21.208;2023-07-24T07:38:58;5.78;;;3.00;;
30948;SDS011;17637;51.984;21.208;2023-07-24T07:41:30;4.47;;;3.20;;
30948;SDS011;17637;51.984;21.208;2023-07-24T07:44:02;3.72;;;2.80;;
30948;SDS011;17637;51.984;21.208;2023-07-24T07:46:33;5.45;;;2.90;;
30948;SDS011;17637;51.984;21.208;2023-07-24T07:49:05;5.10;;;2.90;;
30948;SDS011;17637;51.984;21.208;2023-07-24T07:51:37;5.47;;;3.10;;
30948;SDS011;17637;51.984;21.208;2023-07-24T07:54:09;4.32;;;3.08;;
30948;SDS011;17637;51.984;21.208;2023-07-24T07:56:41;4.03;;;3.08;;
30948;SDS011;17637;51.984;21.208;2023-07-24T07:59:13;3.33;;;2.75;;
30948;SDS011;17637;51.984;21.208;2023-07-24T08:01:45;5.07;;;2.65;;
30948;SDS011;17637;51.984;21.208;2023-07-24T08:04:17;3.72;;;2.65;;
30948;SDS011;17637;51.984;21.208;2023-07-24T08:06:49;4.72;;;2.90;;
30948;SDS011;17637;51.984;21.208;2023-07-24T08:09:21;3.67;;;3.20;;
30948;SDS011;17637;51.984;21.208;2023-07-24T08:11:55;7.90;;;2.65;;
30948;SDS011;17637;51.984;21.208;2023-07-24T08:14:27;3.53;;;2.70;;
30948;SDS011;17637;51.984;21.208;2023-07-24T08:16:59;4.28;;;2.90;;
30948;SDS011;17637;51.984;21.208;2023-07-24T08:19:31;3.38;;;2.75;;
30948;SDS011;17637;51.984;21.208;2023-07-24T08:22:03;7.32;;;2.67;;
30948;SDS011;17637;51.984;21.208;2023-07-24T08:24:36;5.07;;;2.50;;
30948;SDS011;17637;51.984;21.208;2023-07-24T08:27:08;5.40;;;2.95;;
30948;SDS011;17637;51.984;21.208;2023-07-24T08:29:40;3.58;;;2.78;;
30948;SDS011;17637;51.984;21.208;2023-07-24T08:32:12;4.13;;;2.30;;
30948;SDS011;17637;51.984;21.208;2023-07-24T08:34:44;5.47;;;2.17;;
30948;SDS011;17637;51.984;21.208;2023-07-24T08:37:16;6.85;;;2.95;;
30948;SDS011;17637;51.984;21.208;2023-07-24T08:39:48;3.95;;;2.95;;
30948;SDS011;17637;51.984;21.208;2023-07-24T08:42:20;4.30;;;2.53;;
30948;SDS011;17637;51.984;21.208;2023-07-24T08:44:53;3.90;;;2.47;;
30948;SDS011;17637;51.984;21.208;2023-07-24T08:47:25;4.47;;;2.80;;
30948;SDS011;17637;51.984;21.208;2023-07-24T08:49:58;3.40;;;2.65;;
30948;SDS011;17637;51.984;21.208;2023-07-24T08:52:30;2.78;;;2.47;;
30948;SDS011;17637;51.984;21.208;2023-07-24T08:55:07;4.15;;;2.55;;
30948;SDS011;17637;51.984;21.208;2023-07-24T08:57:39;3.78;;;2.78;;
30948;SDS011;17637;51.984;21.208;2023-07-24T09:00:11;3.95;;;2.45;;
30948;SDS011;17637;51.984;21.208;2023-07-24T09:02:43;5.22;;;2.60;;
30948;SDS011;17637;51.984;21.208;2023-07-24T09:05:16;9.07;;;2.85;;
30948;SDS011;17637;51.984;21.208;2023-07-24T09:07:48;4.30;;;2.55;;
30948;SDS011;17637;51.984;21.208;2023-07-24T09:10:24;5.78;;;2.72;;
30948;SDS011;17637;51.984;21.208;2023-07-24T09:12:57;4.15;;;2.42;;
30948;SDS011;17637;51.984;21.208;2023-07-24T09:15:29;4.28;;;2.42;;
30948;SDS011;17637;51.984;21.208;2023-07-24T09:18:10;3.35;;;2.40;;
30948;SDS011;17637;51.984;21.208;2023-07-24T09:20:43;3.67;;;2.75;;
30948;SDS011;17637;51.984;21.208;2023-07-24T09:23:15;3.25;;;2.17;;
30948;SDS011;17637;51.984;21.208;2023-07-24T09:25:57;2.80;;;2.50;;
30948;SDS011;17637;51.984;21.208;2023-07-24T09:28:29;5.40;;;2.95;;
30948;SDS011;17637;51.984;21.208;2023-07-24T09:31:01;4.60;;;2.90;;
30948;SDS011;17637;51.984;21.208;2023-07-24T09:33:34;3.30;;;2.75;;
30948;SDS011;17637;51.984;21.208;2023-07-24T09:36:10;2.90;;;2.45;;
30948;SDS011;17637;51.984;21.208;2023-07-24T09:38:42;3.55;;;2.88;;
30948;SDS011;17637;51.984;21.208;2023-07-24T09:41:14;5.70;;;3.15;;
30948;SDS011;17637;51.984;21.208;2023-07-24T09:43:47;6.30;;;2.97;;
30948;SDS011;17637;51.984;21.208;2023-07-24T09:46:19;4.00;;;3.08;;
30948;SDS011;17637;51.984;21.208;2023-07-24T09:48:51;3.65;;;3.03;;
30948;SDS011;17637;51.984;21.208;2023-07-24T09:51:27;3.90;;;2.67;;
30948;SDS011;17637;51.984;21.208;2023-07-24T09:54:04;3.35;;;3.05;;
30948;SDS011;17637;51.984;21.208;2023-07-24T09:56:42;6.00;;;2.95;;
30948;SDS011;17637;51.984;21.208;2023-07-24T09:59:27;3.20;;;2.90;;
30948;SDS011;17637;51.984;21.208;2023-07-24T10:02:01;4.03;;;2.92;;
30948;SDS011;17637;51.984;21.208;2023-07-24T10:04:34;3.33;;;3.00;;
30948;SDS011;17637;51.984;21.208;2023-07-24T10:07:09;6.85;;;2.90;;
30948;SDS011;17637;51.984;21.208;2023-07-24T10:09:43;4.78;;;2.97;;
30948;SDS011;17637;51.984;21.208;2023-07-24T10:12:16;6.38;;;3.28;;
30948;SDS011;17637;51.984;21.208;2023-07-24T10:14:49;6.45;;;3.20;;
30948;SDS011;17637;51.984;21.208;2023-07-24T10:17:35;3.70;;;2.92;;
30948;SDS011;17637;51.984;21.208;2023-07-24T10:20:08;3.10;;;2.80;;
30948;SDS011;17637;51.984;21.208;2023-07-24T10:22:42;4.20;;;3.60;;
30948;SDS011;17637;51.984;21.208;2023-07-24T10:25:14;3.10;;;2.80;;
30948;SDS011;17637;51.984;21.208;2023-07-24T10:27:46;4.05;;;3.30;;
30948;SDS011;17637;51.984;21.208;2023-07-24T10:30:27;5.80;;;3.25;;
30948;SDS011;17637;51.984;21.208;2023-07-24T10:33:06;7.93;;;3.30;;
30948;SDS011;17637;51.984;21.208;2023-07-24T10:35:43;3.70;;;3.40;;
30948;SDS011;17637;51.984;21.208;2023-07-24T10:38:17;7.13;;;3.53;;
30948;SDS011;17637;51.984;21.208;2023-07-24T10:41:00;3.92;;;2.95;;
30948;SDS011;17637;51.984;21.208;2023-07-24T10:43:43;3.35;;;3.05;;
30948;SDS011;17637;51.984;21.208;2023-07-24T10:46:22;4.00;;;3.60;;
30948;SDS011;17637;51.984;21.208;2023-07-24T10:48:54;6.03;;;3.88;;
30948;SDS011;17637;51.984;21.208;2023-07-24T10:51:26;5.10;;;3.85;;
30948;SDS011;17637;51.984;21.208;2023-07-24T10:54:01;4.60;;;3.38;;
30948;SDS011;17637;51.984;21.208;2023-07-24T10:56:36;5.22;;;3.40;;
30948;SDS011;17637;51.984;21.208;2023-07-24T10:59:09;5.57;;;3.53;;
30948;SDS011;17637;51.984;21.208;2023-07-24T11:01:41;3.38;;;3.05;;
30948;SDS011;17637;51.984;21.208;2023-07-24T11:04:14;5.47;;;3.80;;
30948;SDS011;17637;51.984;21.208;2023-07-24T11:06:51;3.97;;;3.28;;
30948;SDS011;17637;51.984;21.208;2023-07-24T11:09:33;3.80;;;3.40;;
30948;SDS011;17637;51.984;21.208;2023-07-24T11:12:10;4.68;;;3.80;;
30948;SDS011;17637;51.984;21.208;2023-07-24T11:14:46;9.45;;;3.75;;
30948;SDS011;17637;51.984;21.208;2023-07-24T11:17:40;4.00;;;3.58;;
30948;SDS011;17637;51.984;21.208;2023-07-24T11:20:13;3.92;;;3.35;;
30948;SDS011;17637;51.984;21.208;2023-07-24T11:22:46;5.50;;;3.50;;
30948;SDS011;17637;51.984;21.208;2023-07-24T11:25:18;5.18;;;3.38;;
30948;SDS011;17637;51.984;21.208;2023-07-24T11:27:50;7.45;;;3.72;;
30948;SDS011;17637;51.984;21.208;2023-07-24T11:30:21;4.55;;;3.75;;
30948;SDS011;17637;51.984;21.208;2023-07-24T11:32:53;6.22;;;3.88;;
30948;SDS011;17637;51.984;21.208;2023-07-24T11:35:26;4.05;;;3.65;;
30948;SDS011;17637;51.984;21.208;2023-07-24T11:37:58;6.38;;;3.38;;
30948;SDS011;17637;51.984;21.208;2023-07-24T11:40:34;5.10;;;3.40;;
30948;SDS011;17637;51.984;21.208;2023-07-24T11:43:17;4.95;;;3.40;;
30948;SDS011;17637;51.984;21.208;2023-07-24T11:45:56;5.72;;;3.58;;
30948;SDS011;17637;51.984;21.208;2023-07-24T11:48:28;6.07;;;3.67;;
30948;SDS011;17637;51.984;21.208;2023-07-24T11:51:00;7.03;;;3.45;;
30948;SDS011;17637;51.984;21.208;2023-07-24T11:53:34;6.32;;;3.55;;
30948;SDS011;17637;51.984;21.208;2023-07-24T11:56:12;6.53;;;3.63;;
30948;SDS011;17637;51.984;21.208;2023-07-24T11:58:45;5.57;;;3.72;;
30948;SDS011;17637;51.984;21.208;2023-07-24T12:01:18;7.32;;;3.58;;
30948;SDS011;17637;51.984;21.208;2023-07-24T12:03:50;5.22;;;3.58;;
30948;SDS011;17637;51.984;21.208;2023-07-24T12:06:22;4.38;;;3.60;;
30948;SDS011;17637;51.984;21.208;2023-07-24T12:09:01;5.72;;;3.20;;
30948;SDS011;17637;51.984;21.208;2023-07-24T12:11:38;3.72;;;3.08;;
30948;SDS011;17637;51.984;21.208;2023-07-24T12:14:15;10.15;;;3.05;;
30948;SDS011;17637;51.984;21.208;2023-07-24T12:16:47;4.63;;;2.92;;
30948;SDS011;17637;51.984;21.208;2023-07-24T12:19:19;6.03;;;3.60;;
30948;SDS011;17637;51.984;21.208;2023-07-24T12:21:51;4.68;;;3.38;;
30948;SDS011;17637;51.984;21.208;2023-07-24T12:24:23;4.13;;;3.20;;
30948;SDS011;17637;51.984;21.208;2023-07-24T12:26:55;3.15;;;2.80;;
30948;SDS011;17637;51.984;21.208;2023-07-24T12:29:27;3.33;;;2.90;;
30948;SDS011;17637;51.984;21.208;2023-07-24T12:31:58;4.00;;;2.80;;
30948;SDS011;17637;51.984;21.208;2023-07-24T12:34:30;3.72;;;3.17;;
30948;SDS011;17637;51.984;21.208;2023-07-24T12:37:02;5.38;;;3.00;;
30948;SDS011;17637;51.984;21.208;2023-07-24T12:39:35;4.22;;;3.10;;
30948;SDS011;17637;51.984;21.208;2023-07-24T12:42:07;4.45;;;3.10;;
30948;SDS011;17637;51.984;21.208;2023-07-24T12:44:40;6.82;;;3.38;;
30948;SDS011;17637;51.984;21.208;2023-07-24T12:47:13;5.53;;;3.30;;
30948;SDS011;17637;51.984;21.208;2023-07-24T12:49:45;5.90;;;3.20;;
30948;SDS011;17637;51.984;21.208;2023-07-24T12:52:17;3.78;;;3.30;;
30948;SDS011;17637;51.984;21.208;2023-07-24T12:54:48;3.70;;;3.05;;
30948;SDS011;17637;51.984;21.208;2023-07-24T12:57:32;5.50;;;3.30;;
30948;SDS011;17637;51.984;21.208;2023-07-24T13:00:04;7.78;;;3.53;;
30948;SDS011;17637;51.984;21.208;2023-07-24T13:02:37;4.75;;;3.17;;
30948;SDS011;17637;51.984;21.208;2023-07-24T13:05:10;7.32;;;3.28;;
30948;SDS011;17637;51.984;21.208;2023-07-24T13:07:42;4.40;;;3.70;;
30948;SDS011;17637;51.984;21.208;2023-07-24T13:10:14;4.75;;;3.50;;
30948;SDS011;17637;51.984;21.208;2023-07-24T13:12:46;4.72;;;3.58;;
30948;SDS011;17637;51.984;21.208;2023-07-24T13:15:18;4.50;;;3.47;;
30948;SDS011;17637;51.984;21.208;2023-07-24T13:17:50;3.33;;;3.03;;
30948;SDS011;17637;51.984;21.208;2023-07-24T13:20:22;3.83;;;3.30;;
30948;SDS011;17637;51.984;21.208;2023-07-24T13:22:54;5.20;;;3.38;;
30948;SDS011;17637;51.984;21.208;2023-07-24T13:25:26;5.15;;;4.13;;
30948;SDS011;17637;51.984;21.208;2023-07-24T13:27:58;6.50;;;3.67;;
30948;SDS011;17637;51.984;21.208;2023-07-24T13:30:32;4.00;;;3.60;;
30948;SDS011;17637;51.984;21.208;2023-07-24T13:33:04;5.72;;;3.60;;
30948;SDS011;17637;51.984;21.208;2023-07-24T13:35:37;5.00;;;3.67;;
30948;SDS011;17637;51.984;21.208;2023-07-24T13:38:09;4.20;;;3.70;;
30948;SDS011;17637;51.984;21.208;2023-07-24T13:40:41;4.43;;;3.70;;
30948;SDS011;17637;51.984;21.208;2023-07-24T13:43:13;4.63;;;3.65;;
30948;SDS011;17637;51.984;21.208;2023-07-24T13:45:45;9.13;;;3.63;;
30948;SDS011;17637;51.984;21.208;2023-07-24T13:48:17;6.55;;;3.95;;
30948;SDS011;17637;51.984;21.208;2023-07-24T13:50:49;5.38;;;3.75;;
30948;SDS011;17637;51.984;21.208;2023-07-24T13:53:21;4.07;;;3.67;;
30948;SDS011;17637;51.984;21.208;2023-07-24T13:55:53;5.50;;;3.60;;
30948;SDS011;17637;51.984;21.208;2023-07-24T13:58:25;10.13;;;3.60;;
30948;SDS011;17637;51.984;21.208;2023-07-24T14:00:57;8.30;;;4.10;;
30948;SDS011;17637;51.984;21.208;2023-07-24T14:03:29;5.50;;;3.58;;
30948;SDS011;17637;51.984;21.208;2023-07-24T14:06:04;9.00;;;4.28;;
30948;SDS011;17637;51.984;21.208;2023-07-24T14:08:36;7.88;;;4.05;;
30948;SDS011;17637;51.984;21.208;2023-07-24T14:11:08;5.53;;;4.03;;
30948;SDS011;17637;51.984;21.208;2023-07-24T14:13:40;6.70;;;4.40;;
30948;SDS011;17637;51.984;21.208;2023-07-24T14:16:11;6.55;;;4.20;;
30948;SDS011;17637;51.984;21.208;2023-07-24T14:18:43;6.55;;;3.85;;
30948;SDS011;17637;51.984;21.208;2023-07-24T14:21:15;8.90;;;4.88;;
30948;SDS011;17637;51.984;21.208;2023-07-24T14:23:47;6.93;;;4.45;;
30948;SDS011;17637;51.984;21.208;2023-07-24T14:26:19;5.05;;;4.18;;
30948;SDS011;17637;51.984;21.208;2023-07-24T14:28:51;7.22;;;3.85;;
30948;SDS011;17637;51.984;21.208;2023-07-24T14:31:27;4.78;;;4.28;;
30948;SDS011;17637;51.984;21.208;2023-07-24T14:34:00;5.20;;;4.32;;
30948;SDS011;17637;51.984;21.208;2023-07-24T14:36:32;7.35;;;4.85;;
30948;SDS011;17637;51.984;21.208;2023-07-24T14:39:05;5.75;;;4.20;;
30948;SDS011;17637;51.984;21.208;2023-07-24T14:41:37;7.63;;;4.93;;
30948;SDS011;17637;51.984;21.208;2023-07-24T14:44:09;7.82;;;4.68;;
30948;SDS011;17637;51.984;21.208;2023-07-24T14:46:42;4.90;;;4.20;;
30948;SDS011;17637;51.984;21.208;2023-07-24T14:49:13;6.70;;;4.22;;
30948;SDS011;17637;51.984;21.208;2023-07-24T14:51:45;10.30;;;4.60;;
30948;SDS011;17637;51.984;21.208;2023-07-24T14:54:17;7.35;;;4.32;;
30948;SDS011;17637;51.984;21.208;2023-07-24T14:56:49;9.63;;;4.80;;
30948;SDS011;17637;51.984;21.208;2023-07-24T14:59:31;9.10;;;5.32;;
30948;SDS011;17637;51.984;21.208;2023-07-24T15:02:03;5.60;;;5.05;;
30948;SDS011;17637;51.984;21.208;2023-07-24T15:04:35;6.57;;;5.10;;
30948;SDS011;17637;51.984;21.208;2023-07-24T15:07:07;7.13;;;5.57;;
30948;SDS011;17637;51.984;21.208;2023-07-24T15:09:39;6.57;;;5.03;;
30948;SDS011;17637;51.984;21.208;2023-07-24T15:12:11;9.52;;;6.20;;